createdAt,value
2023-02-08T00:00:06.486Z,25.23
2023-02-08T00:02:34.247Z,25.43
2023-02-08T00:05:01.034Z,25.50
2023-02-08T00:07:27.683Z,24.90
2023-02-08T00:09:54.195Z,26.77
2023-02-08T00:12:20.690Z,27.47
2023-02-08T00:14:47.265Z,28.87
2023-02-08T00:17:14.168Z,26.27
2023-02-08T00:19:40.680Z,25.73
2023-02-08T00:22:07.435Z,28.43
2023-02-08T00:24:33.945Z,30.10
2023-02-08T00:27:00.459Z,29.40
2023-02-08T00:29:27.010Z,28.00
2023-02-08T00:31:53.734Z,28.07
2023-02-08T00:34:20.604Z,26.57
2023-02-08T00:36:48.296Z,29.43
2023-02-08T00:39:14.827Z,32.90
2023-02-08T00:41:42.038Z,29.30
2023-02-08T00:44:08.785Z,26.00
2023-02-08T00:46:35.340Z,27.60
2023-02-08T00:49:01.926Z,27.97
2023-02-08T00:51:28.410Z,28.67
2023-02-08T00:53:54.929Z,25.97
2023-02-08T00:56:21.580Z,32.13
2023-02-08T00:58:48.158Z,27.00
2023-02-08T01:01:14.902Z,32.20
2023-02-08T01:03:43.226Z,32.90
2023-02-08T01:06:13.873Z,29.17
2023-02-08T01:08:40.555Z,32.30
2023-02-08T01:11:13.016Z,31.23
2023-02-08T01:13:40.381Z,35.30
2023-02-08T01:16:12.403Z,34.60
2023-02-08T01:18:41.181Z,36.90
2023-02-08T01:21:15.154Z,32.00
2023-02-08T01:23:43.022Z,36.53
2023-02-08T01:26:10.638Z,32.80
2023-02-08T01:28:38.890Z,34.43
2023-02-08T01:31:11.852Z,28.90
2023-02-08T01:33:38.523Z,36.30
2023-02-08T01:36:07.047Z,38.17
2023-02-08T01:38:35.260Z,37.83
2023-02-08T01:41:03.083Z,31.63
2023-02-08T01:43:33.887Z,29.93
2023-02-08T01:46:00.448Z,36.47
2023-02-08T01:48:31.675Z,32.73
2023-02-08T01:51:15.131Z,35.47
2023-02-08T01:53:43.625Z,37.37
2023-02-08T01:56:17.225Z,36.87
2023-02-08T01:58:49.219Z,30.60
2023-02-08T02:01:16.145Z,38.67
2023-02-08T02:03:43.809Z,38.43
2023-02-08T02:06:16.103Z,41.13
2023-02-08T02:08:52.384Z,40.83
2023-02-08T02:11:19.924Z,36.23
2023-02-08T02:13:47.995Z,36.77
2023-02-08T02:16:14.571Z,37.30
2023-02-08T02:18:41.256Z,42.50
2023-02-08T02:21:11.212Z,35.37
2023-02-08T02:23:58.805Z,41.80
2023-02-08T02:26:49.936Z,42.10
2023-02-08T02:29:31.385Z,37.93
2023-02-08T02:32:07.920Z,51.30
2023-02-08T02:34:44.886Z,40.43
2023-02-08T02:37:37.536Z,41.03
2023-02-08T02:40:42.099Z,39.30
2023-02-08T02:43:43.462Z,37.30
2023-02-08T02:46:28.328Z,33.87
2023-02-08T02:49:23.009Z,36.67
2023-02-08T02:52:03.377Z,46.03
2023-02-08T02:54:45.375Z,39.07
2023-02-08T02:57:16.997Z,42.27
2023-02-08T02:59:46.674Z,40.30
2023-02-08T03:02:13.903Z,33.47
2023-02-08T03:04:40.788Z,41.07
2023-02-08T03:07:17.919Z,45.37
2023-02-08T03:09:59.615Z,35.60
2023-02-08T03:12:29.263Z,41.07
2023-02-08T03:15:03.934Z,39.47
2023-02-08T03:17:59.244Z,45.50
2023-02-08T03:20:30.277Z,34.27
2023-02-08T03:23:06.338Z,39.50
2023-02-08T03:25:55.171Z,37.57
2023-02-08T03:28:49.671Z,35.23
2023-02-08T03:31:32.882Z,35.13
2023-02-08T03:34:09.104Z,39.37
2023-02-08T03:36:42.888Z,39.30
2023-02-08T03:39:15.509Z,40.20
2023-02-08T03:41:47.013Z,34.77
2023-02-08T03:44:18.681Z,41.73
2023-02-08T03:47:02.802Z,41.77
2023-02-08T03:49:33.504Z,40.23
2023-02-08T03:52:03.267Z,40.53
2023-02-08T03:54:35.404Z,48.30
2023-02-08T03:57:20.959Z,39.23
2023-02-08T03:59:53.717Z,39.70
2023-02-08T04:02:23.505Z,39.80
2023-02-08T04:04:52.028Z,34.90
2023-02-08T04:07:19.450Z,45.87
2023-02-08T04:09:46.506Z,45.53
2023-02-08T04:12:13.526Z,35.83
2023-02-08T04:14:40.437Z,43.33
2023-02-08T04:17:06.986Z,38.33
2023-02-08T04:19:33.482Z,44.67
2023-02-08T04:22:00.263Z,40.13
2023-02-08T04:24:26.785Z,43.83
2023-02-08T04:26:53.478Z,41.00
2023-02-08T04:29:19.972Z,39.37
2023-02-08T04:31:46.960Z,44.47
2023-02-08T04:34:13.562Z,36.67
2023-02-08T04:36:40.120Z,36.87
2023-02-08T04:39:06.643Z,40.57
2023-02-08T04:41:33.172Z,43.10
2023-02-08T04:44:00.016Z,39.17
2023-02-08T04:46:26.579Z,44.33
2023-02-08T04:48:53.096Z,44.47
2023-02-08T04:51:19.741Z,41.87
2023-02-08T04:53:46.250Z,42.10
2023-02-08T04:56:12.762Z,44.53
2023-02-08T04:58:39.293Z,40.40
2023-02-08T05:01:07.753Z,47.50
2023-02-08T05:03:34.599Z,48.00
2023-02-08T05:06:01.097Z,40.90
2023-02-08T05:08:28.005Z,41.03
2023-02-08T05:10:54.885Z,48.37
2023-02-08T05:13:21.517Z,41.77
2023-02-08T05:15:48.405Z,50.37
2023-02-08T05:18:14.989Z,43.83
2023-02-08T05:20:41.817Z,47.97
2023-02-08T05:23:08.517Z,53.13
2023-02-08T05:25:35.011Z,46.10
2023-02-08T05:28:01.602Z,42.93
2023-02-08T05:30:28.115Z,49.43
2023-02-08T05:32:54.600Z,50.90
2023-02-08T05:35:21.103Z,42.60
2023-02-08T05:37:47.759Z,44.23
2023-02-08T05:40:14.262Z,42.83
2023-02-08T05:42:42.326Z,45.17
2023-02-08T05:45:09.066Z,44.67
2023-02-08T05:47:36.774Z,53.53
2023-02-08T05:50:03.516Z,49.60
2023-02-08T05:52:30.058Z,53.80
2023-02-08T05:54:56.877Z,42.00
2023-02-08T05:57:23.608Z,42.20
2023-02-08T05:59:50.128Z,71.03
2023-02-08T06:02:16.819Z,48.10
2023-02-08T06:04:43.364Z,47.53
2023-02-08T06:07:09.924Z,48.17
2023-02-08T06:09:37.236Z,40.63
2023-02-08T06:12:03.934Z,55.23
2023-02-08T06:14:30.775Z,55.33
2023-02-08T06:16:57.808Z,42.80
2023-02-08T06:19:24.587Z,49.33
2023-02-08T06:21:51.286Z,45.00
2023-02-08T06:24:17.980Z,48.77
2023-02-08T06:26:44.883Z,45.60
2023-02-08T06:29:11.389Z,49.77
2023-02-08T06:31:37.945Z,55.73
2023-02-08T06:34:04.650Z,48.87
2023-02-08T06:36:31.321Z,42.50
2023-02-08T06:38:57.857Z,42.63
2023-02-08T06:41:24.399Z,47.03
2023-02-08T06:43:51.045Z,43.73
2023-02-08T06:46:17.581Z,48.50
2023-02-08T06:48:44.121Z,44.13
2023-02-08T06:51:10.789Z,42.00
2023-02-08T06:53:37.314Z,46.90
2023-02-08T06:56:04.035Z,47.97
2023-02-08T06:58:30.961Z,45.03
2023-02-08T07:00:57.520Z,46.57
2023-02-08T07:03:24.555Z,45.63
2023-02-08T07:06:04.198Z,45.67
2023-02-08T07:08:33.487Z,47.13
2023-02-08T07:11:00.015Z,42.03
2023-02-08T07:13:26.527Z,48.20
2023-02-08T07:15:53.057Z,44.43
2023-02-08T07:18:19.547Z,46.20
2023-02-08T07:20:46.089Z,48.60
2023-02-08T07:23:12.599Z,57.30
2023-02-08T07:25:39.149Z,43.47
2023-02-08T07:28:05.912Z,46.03
2023-02-08T07:30:32.619Z,48.90
2023-02-08T07:32:59.167Z,46.93
2023-02-08T07:35:25.745Z,53.63
2023-02-08T07:37:52.225Z,51.60
2023-02-08T07:40:18.741Z,41.43
2023-02-08T07:42:45.283Z,44.17
2023-02-08T07:45:22.564Z,58.17
2023-02-08T07:47:49.117Z,48.40
2023-02-08T07:50:16.761Z,43.93
2023-02-08T07:52:45.966Z,41.30
2023-02-08T07:55:16.957Z,47.83
2023-02-08T07:57:48.661Z,41.93
2023-02-08T08:00:17.601Z,48.40
2023-02-08T08:02:44.514Z,45.93
2023-02-08T08:05:11.793Z,43.67
2023-02-08T08:07:38.321Z,52.50
2023-02-08T08:10:05.060Z,47.30
2023-02-08T08:12:31.631Z,47.10
2023-02-08T08:14:58.182Z,42.30
2023-02-08T08:17:24.731Z,45.90
2023-02-08T08:19:51.498Z,49.80
2023-02-08T08:22:17.990Z,43.07
2023-02-08T08:24:44.485Z,49.23
2023-02-08T08:27:10.999Z,51.23
2023-02-08T08:29:38.061Z,42.60
2023-02-08T08:32:04.806Z,44.43
2023-02-08T08:34:31.841Z,46.30
2023-02-08T08:36:59.802Z,46.77
2023-02-08T08:39:27.298Z,43.70
2023-02-08T08:41:57.222Z,50.40
2023-02-08T08:44:23.898Z,48.50
2023-02-08T08:46:50.550Z,49.90
2023-02-08T08:49:17.141Z,44.80
2023-02-08T08:51:43.758Z,44.40
2023-02-08T08:54:10.453Z,46.00
2023-02-08T08:56:37.424Z,47.70
2023-02-08T08:59:03.976Z,44.73
2023-02-08T09:01:32.395Z,53.07
2023-02-08T09:04:00.217Z,43.07
2023-02-08T09:06:26.756Z,46.30
2023-02-08T09:08:53.283Z,48.53
2023-02-08T09:11:20.034Z,41.13
2023-02-08T09:13:46.677Z,40.43
2023-02-08T09:16:16.495Z,40.80
2023-02-08T09:18:43.683Z,45.50
2023-02-08T09:21:13.560Z,44.07
2023-02-08T09:23:40.150Z,41.53
2023-02-08T09:26:08.928Z,45.20
2023-02-08T09:28:35.564Z,46.23
2023-02-08T09:31:09.778Z,41.10
2023-02-08T09:33:36.487Z,48.30
2023-02-08T09:36:03.267Z,42.10
2023-02-08T09:38:30.027Z,37.90
2023-02-08T09:41:18.825Z,46.80
2023-02-08T09:44:15.537Z,38.27
2023-02-08T09:46:54.669Z,39.83
2023-02-08T09:49:28.264Z,36.83
2023-02-08T09:52:00.503Z,36.70
2023-02-08T09:54:37.260Z,35.70
2023-02-08T09:57:09.590Z,38.13
2023-02-08T09:59:39.877Z,37.37
2023-02-08T10:02:27.218Z,32.10
2023-02-08T10:05:01.639Z,33.83
2023-02-08T10:07:29.992Z,38.07
2023-02-08T10:09:59.942Z,33.70
2023-02-08T10:12:37.799Z,37.53
2023-02-08T10:15:16.464Z,39.03
2023-02-08T10:18:24.212Z,30.70
2023-02-08T10:21:11.118Z,36.13
2023-02-08T10:23:51.518Z,25.87
2023-02-08T10:26:24.754Z,31.87
2023-02-08T10:29:01.276Z,30.73
2023-02-08T10:32:14.925Z,26.53
2023-02-08T10:35:00.462Z,29.30
2023-02-08T10:37:34.749Z,28.70
2023-02-08T10:40:13.597Z,27.67
2023-02-08T10:42:42.679Z,30.90
2023-02-08T10:45:24.841Z,27.47
2023-02-08T10:47:58.277Z,27.57
2023-02-08T10:50:42.087Z,30.63
2023-02-08T10:53:17.169Z,27.37
2023-02-08T10:55:46.322Z,27.43
2023-02-08T10:58:19.777Z,30.17
2023-02-08T11:00:47.572Z,34.77
2023-02-08T11:03:22.473Z,27.33
2023-02-08T11:05:49.576Z,26.33
2023-02-08T11:08:19.748Z,37.33
2023-02-08T11:11:08.989Z,29.77
2023-02-08T11:13:44.381Z,29.20
2023-02-08T11:16:19.924Z,34.63
2023-02-08T11:18:56.794Z,28.70
2023-02-08T11:21:36.510Z,30.40
2023-02-08T11:24:15.163Z,26.93
2023-02-08T11:26:42.375Z,29.00
2023-02-08T11:29:26.147Z,25.83
2023-02-08T11:31:57.626Z,30.40
2023-02-08T11:34:30.489Z,27.10
2023-02-08T11:36:58.339Z,26.17
2023-02-08T11:39:29.564Z,28.53
2023-02-08T11:42:00.640Z,29.63
2023-02-08T11:44:31.806Z,26.77
2023-02-08T11:47:02.522Z,30.97
2023-02-08T11:49:41.776Z,39.13
2023-02-08T11:52:25.358Z,29.70
2023-02-08T11:54:53.950Z,31.47
2023-02-08T11:57:25.769Z,24.73
2023-02-08T12:00:17.230Z,34.33
2023-02-08T12:02:44.088Z,27.80
2023-02-08T12:05:15.416Z,27.80
2023-02-08T12:07:57.157Z,24.50
2023-02-08T12:10:47.824Z,22.83
2023-02-08T12:13:40.727Z,27.83
2023-02-08T12:16:11.964Z,26.93
2023-02-08T12:18:41.295Z,27.40
2023-02-08T12:21:37.070Z,24.17
2023-02-08T12:24:21.632Z,24.80
2023-02-08T12:27:05.159Z,21.87
2023-02-08T12:30:02.477Z,31.90
2023-02-08T12:32:53.114Z,22.37
2023-02-08T12:35:41.683Z,27.77
2023-02-08T12:39:07.807Z,24.73
2023-02-08T12:42:01.380Z,22.00
2023-02-08T12:44:43.160Z,19.60
2023-02-08T12:47:28.546Z,32.33
2023-02-08T12:50:31.363Z,27.20
2023-02-08T12:53:03.811Z,37.93
2023-02-08T12:55:35.422Z,27.77
2023-02-08T12:58:30.904Z,21.93
2023-02-08T13:01:23.330Z,20.40
2023-02-08T13:04:16.849Z,25.87
2023-02-08T13:06:49.381Z,17.47
2023-02-08T13:09:35.798Z,20.70
2023-02-08T13:12:11.942Z,18.77
2023-02-08T13:14:55.942Z,21.67
2023-02-08T13:17:27.362Z,20.43
2023-02-08T13:20:27.230Z,17.47
2023-02-08T13:22:57.574Z,18.63
2023-02-08T13:25:31.230Z,24.20
2023-02-08T13:28:21.579Z,17.60
2023-02-08T13:31:30.804Z,16.97
2023-02-08T13:34:07.917Z,15.60
2023-02-08T13:36:41.792Z,16.67
2023-02-08T13:39:27.311Z,17.73
2023-02-08T13:41:56.533Z,17.80
2023-02-08T13:44:35.130Z,17.90
2023-02-08T13:47:02.433Z,16.03
2023-02-08T13:49:49.170Z,14.80
2023-02-08T13:52:46.984Z,12.10
2023-02-08T13:55:36.035Z,13.53
2023-02-08T13:58:27.762Z,13.97
2023-02-08T14:00:54.790Z,13.40
2023-02-08T14:03:27.308Z,14.60
2023-02-08T14:06:16.914Z,14.10
2023-02-08T14:09:16.066Z,13.23
2023-02-08T14:11:52.189Z,18.33
2023-02-08T14:14:31.965Z,14.30
2023-02-08T14:17:04.503Z,11.83
2023-02-08T14:19:34.061Z,11.50
2023-02-08T14:22:05.248Z,12.90
2023-02-08T14:24:36.903Z,9.97
2023-02-08T14:27:22.371Z,13.90
2023-02-08T14:30:17.863Z,13.40
2023-02-08T14:32:47.852Z,12.67
2023-02-08T14:35:26.145Z,9.50
2023-02-08T14:38:23.825Z,21.77
2023-02-08T14:40:55.097Z,14.27
2023-02-08T14:43:32.659Z,18.50
2023-02-08T14:46:37.825Z,9.60
2023-02-08T14:49:16.991Z,13.17
2023-02-08T14:52:02.796Z,14.20
2023-02-08T14:54:38.317Z,10.37
2023-02-08T14:57:18.443Z,13.20
2023-02-08T14:59:46.086Z,10.67
2023-02-08T15:02:20.817Z,10.07
2023-02-08T15:04:47.910Z,7.53
2023-02-08T15:07:27.478Z,10.00
2023-02-08T15:09:54.402Z,12.37
2023-02-08T15:12:26.592Z,7.17
2023-02-08T15:14:56.830Z,9.57
2023-02-08T15:17:49.089Z,9.83
2023-02-08T15:20:28.422Z,12.43
2023-02-08T15:23:01.121Z,13.37
2023-02-08T15:25:35.632Z,13.10
2023-02-08T15:28:16.440Z,15.37
2023-02-08T15:30:44.092Z,10.03
2023-02-08T15:33:17.743Z,14.43
2023-02-08T15:35:45.886Z,12.10
2023-02-08T15:38:18.125Z,11.57
2023-02-08T15:41:08.265Z,13.33
2023-02-08T15:43:36.742Z,13.10
2023-02-08T15:46:07.409Z,14.10
2023-02-08T15:48:36.080Z,13.60
2023-02-08T15:51:03.974Z,16.70
2023-02-08T15:53:31.545Z,13.63
2023-02-08T15:56:04.838Z,16.93
2023-02-08T15:58:54.230Z,14.43
2023-02-08T16:01:22.050Z,13.30
2023-02-08T16:03:55.914Z,19.33
2023-02-08T16:06:34.577Z,17.47
2023-02-08T16:09:02.649Z,49.27
2023-02-08T16:11:32.674Z,28.53
2023-02-08T16:14:02.332Z,17.90
2023-02-08T16:16:43.203Z,20.80
2023-02-08T16:19:31.097Z,17.90
2023-02-08T16:22:23.090Z,18.90
2023-02-08T16:24:50.782Z,16.47
2023-02-08T16:27:30.107Z,20.33
2023-02-08T16:29:57.408Z,24.43
2023-02-08T16:32:39.749Z,16.47
2023-02-08T16:35:23.179Z,27.13
2023-02-08T16:38:00.319Z,24.27
2023-02-08T16:40:52.517Z,25.80
2023-02-08T16:43:21.267Z,21.47
2023-02-08T16:46:10.450Z,23.10
2023-02-08T16:48:39.719Z,21.30
2023-02-08T16:51:10.748Z,19.07
2023-02-08T16:53:42.384Z,21.90
2023-02-08T16:56:10.843Z,22.30
2023-02-08T16:58:37.425Z,22.07
2023-02-08T17:01:04.358Z,24.03
2023-02-08T17:03:32.563Z,23.80
2023-02-08T17:06:00.827Z,24.90
2023-02-08T17:08:27.404Z,24.23
2023-02-08T17:10:58.551Z,35.83
2023-02-08T17:13:28.034Z,28.73
2023-02-08T17:15:54.686Z,34.00
2023-02-08T17:18:21.267Z,26.27
2023-02-08T17:20:48.020Z,22.63
2023-02-08T17:23:16.426Z,25.00
2023-02-08T17:25:43.751Z,25.03
2023-02-08T17:28:19.301Z,26.13
2023-02-08T17:30:47.756Z,27.53
2023-02-08T17:33:20.417Z,24.90
2023-02-08T17:35:51.383Z,21.60
2023-02-08T17:38:19.206Z,25.50
2023-02-08T17:40:46.414Z,25.50
2023-02-08T17:43:13.164Z,22.03
2023-02-08T17:45:41.715Z,16.43
2023-02-08T17:48:08.811Z,38.63
2023-02-08T17:50:36.094Z,21.77
2023-02-08T17:53:04.528Z,26.30
2023-02-08T17:55:31.314Z,26.37
2023-02-08T17:57:58.193Z,35.40
2023-02-08T18:00:25.643Z,35.50
2023-02-08T18:02:54.619Z,27.03
2023-02-08T18:05:24.148Z,32.07
2023-02-08T18:07:51.957Z,20.83
2023-02-08T18:10:18.877Z,20.37
2023-02-08T18:12:45.659Z,23.27
2023-02-08T18:15:15.669Z,28.67
2023-02-08T18:17:43.587Z,21.30
2023-02-08T18:20:11.420Z,23.83
2023-02-08T18:22:38.385Z,21.93
2023-02-08T18:25:05.509Z,28.77
2023-02-08T18:27:32.392Z,27.70
2023-02-08T18:29:59.781Z,23.60
2023-02-08T18:32:28.057Z,23.57
2023-02-08T18:34:55.570Z,22.93
2023-02-08T18:37:23.257Z,22.63
2023-02-08T18:39:51.290Z,30.67
2023-02-08T18:42:18.086Z,27.50
2023-02-08T18:44:44.641Z,29.00
2023-02-08T18:47:11.154Z,28.60
2023-02-08T18:49:40.910Z,31.63
2023-02-08T18:52:12.764Z,30.50
2023-02-08T18:54:40.473Z,28.90
2023-02-08T18:57:10.594Z,26.07
2023-02-08T18:59:38.914Z,28.17
2023-02-08T19:02:07.144Z,26.53
2023-02-08T19:04:40.356Z,28.40
2023-02-08T19:07:07.469Z,36.90
2023-02-08T19:09:38.343Z,32.57
2023-02-08T19:12:07.443Z,37.90
2023-02-08T19:14:34.636Z,30.70
2023-02-08T19:17:02.631Z,27.00
2023-02-08T19:19:29.318Z,34.13
2023-02-08T19:21:55.831Z,28.73
2023-02-08T19:24:23.357Z,30.10
2023-02-08T19:26:49.999Z,28.40
2023-02-08T19:29:19.893Z,29.33
2023-02-08T19:31:46.866Z,29.20
2023-02-08T19:34:14.203Z,33.43
2023-02-08T19:36:46.876Z,36.87
2023-02-08T19:39:19.336Z,29.40
2023-02-08T19:41:46.543Z,37.07
2023-02-08T19:44:15.821Z,36.47
2023-02-08T19:46:46.259Z,33.83
2023-02-08T19:49:13.497Z,35.97
2023-02-08T19:51:40.877Z,33.13
2023-02-08T19:54:10.456Z,34.13
2023-02-08T19:56:37.297Z,29.67
2023-02-08T19:59:06.506Z,34.97
2023-02-08T20:01:35.600Z,33.50
2023-02-08T20:04:02.987Z,34.53
2023-02-08T20:06:33.469Z,37.90
2023-02-08T20:09:00.709Z,35.23
2023-02-08T20:11:30.865Z,33.23
2023-02-08T20:13:59.278Z,37.10
2023-02-08T20:16:30.452Z,42.03
2023-02-08T20:19:00.514Z,38.70
2023-02-08T20:21:27.351Z,43.60
2023-02-08T20:23:55.026Z,35.00
2023-02-08T20:26:29.581Z,40.13
2023-02-08T20:28:59.115Z,40.93
2023-02-08T20:31:31.136Z,45.03
2023-02-08T20:34:00.389Z,41.83
2023-02-08T20:36:29.213Z,41.73
2023-02-08T20:38:57.516Z,48.60
2023-02-08T20:41:26.347Z,44.50
2023-02-08T20:43:53.485Z,41.10
2023-02-08T20:46:25.797Z,50.70
2023-02-08T20:48:54.518Z,39.83
2023-02-08T20:51:22.967Z,45.40
2023-02-08T20:53:50.645Z,43.10
2023-02-08T20:56:27.159Z,47.37
2023-02-08T20:58:53.798Z,43.87
2023-02-08T21:01:25.604Z,48.97
2023-02-08T21:03:57.095Z,54.10
2023-02-08T21:06:26.479Z,50.43
2023-02-08T21:08:55.275Z,45.00
2023-02-08T21:11:24.903Z,44.20
2023-02-08T21:13:55.638Z,41.13
2023-02-08T21:16:23.041Z,44.53
2023-02-08T21:18:51.003Z,40.40
2023-02-08T21:21:18.292Z,43.30
2023-02-08T21:23:46.076Z,46.53
2023-02-08T21:26:18.671Z,45.57
2023-02-08T21:28:46.184Z,46.90
2023-02-08T21:31:20.061Z,44.70
2023-02-08T21:33:46.907Z,47.43
2023-02-08T21:36:19.836Z,48.20
2023-02-08T21:38:47.099Z,46.43
2023-02-08T21:41:25.307Z,54.40
2023-02-08T21:43:54.744Z,44.03
2023-02-08T21:46:24.841Z,42.57
2023-02-08T21:49:11.986Z,45.53
2023-02-08T21:51:57.784Z,45.60
2023-02-08T21:54:53.186Z,50.20
2023-02-08T21:57:23.210Z,49.43
2023-02-08T21:59:52.888Z,44.17
2023-02-08T22:02:25.694Z,42.43
2023-02-08T22:05:13.296Z,48.80
2023-02-08T22:07:52.903Z,42.27
2023-02-08T22:10:22.234Z,44.47
2023-02-08T22:12:49.555Z,44.83
2023-02-08T22:15:21.114Z,47.20
2023-02-08T22:17:51.835Z,47.03
2023-02-08T22:20:18.755Z,46.67
2023-02-08T22:22:45.593Z,50.50
2023-02-08T22:25:12.463Z,45.27
2023-02-08T22:27:41.617Z,47.10
2023-02-08T22:30:11.403Z,47.90
2023-02-08T22:32:43.276Z,49.27
2023-02-08T22:35:11.880Z,39.70
2023-02-08T22:37:38.807Z,41.70
2023-02-08T22:40:06.406Z,48.40
2023-02-08T22:42:32.984Z,48.30
2023-02-08T22:44:59.521Z,42.83
2023-02-08T22:47:26.070Z,52.53
2023-02-08T22:49:56.372Z,39.97
2023-02-08T22:52:22.951Z,39.80
2023-02-08T22:54:50.679Z,40.33
2023-02-08T22:57:17.430Z,42.20
2023-02-08T22:59:43.941Z,39.57
2023-02-08T23:02:10.477Z,48.00
2023-02-08T23:04:37.718Z,44.23
2023-02-08T23:07:04.775Z,39.40
2023-02-08T23:09:31.296Z,38.83
2023-02-08T23:11:57.805Z,41.93
2023-02-08T23:14:24.322Z,48.97
2023-02-08T23:16:51.004Z,47.53
2023-02-08T23:19:18.350Z,40.23
2023-02-08T23:21:45.207Z,41.70
2023-02-08T23:24:11.955Z,48.73
2023-02-08T23:26:38.944Z,45.07
2023-02-08T23:29:05.518Z,44.87
2023-02-08T23:31:32.251Z,42.73
2023-02-08T23:34:00.378Z,35.93
2023-02-08T23:36:27.443Z,46.77
2023-02-08T23:38:54.012Z,38.77
2023-02-08T23:41:22.903Z,39.80
2023-02-08T23:43:51.002Z,40.13
2023-02-08T23:46:28.734Z,49.27
2023-02-08T23:48:56.046Z,40.20
2023-02-08T23:51:24.994Z,39.70
2023-02-08T23:53:52.280Z,47.73
2023-02-08T23:56:25.053Z,39.07
2023-02-08T23:58:55.009Z,45.20
